sensor_id;sensor_type;location;lat;lon;timestamp;noise_LAeq;noise_LA_min;noise_LA_max;noise_LA01;noise_LA95
76767;Laerm;65707;52.362;6.588;2023-05-14T00:00:41;36.65;33.32;43.78;;
76767;Laerm;65707;52.362;6.588;2023-05-14T00:03:08;39.59;31.99;46.01;;
76767;Laerm;65707;52.362;6.588;2023-05-14T00:05:34;42.58;37.94;51.45;;
76767;Laerm;65707;52.362;6.588;2023-05-14T00:08:01;44.26;37.97;55.92;;
76767;Laerm;65707;52.362;6.588;2023-05-14T00:10:28;43.58;37.02;54.72;;
76767;Laerm;65707;52.362;6.588;2023-05-14T00:12:54;43.24;38.06;58.76;;
76767;Laerm;65707;52.362;6.588;2023-05-14T00:15:21;43.84;36.25;58.39;;
76767;Laerm;65707;52.362;6.588;2023-05-14T00:17:49;43.47;38.56;56.24;;
76767;Laerm;65707;52.362;6.588;2023-05-14T00:20:16;42.80;38.52;52.08;;
76767;Laerm;65707;52.362;6.588;2023-05-14T00:22:43;41.07;36.10;56.48;;
76767;Laerm;65707;52.362;6.588;2023-05-14T00:25:10;38.66;31.20;44.94;;
76767;Laerm;65707;52.362;6.588;2023-05-14T00:27:36;38.61;31.33;56.03;;
76767;Laerm;65707;52.362;6.588;2023-05-14T00:30:05;38.91;30.89;53.79;;
76767;Laerm;65707;52.362;6.588;2023-05-14T00:32:32;41.13;31.38;56.69;;
76767;Laerm;65707;52.362;6.588;2023-05-14T00:35:00;37.76;30.72;45.23;;
76767;Laerm;65707;52.362;6.588;2023-05-14T00:37:28;44.38;30.51;63.95;;
76767;Laerm;65707;52.362;6.588;2023-05-14T00:39:55;42.11;30.87;58.78;;
76767;Laerm;65707;52.362;6.588;2023-05-14T00:42:22;37.69;30.70;45.07;;
76767;Laerm;65707;52.362;6.588;2023-05-14T00:44:49;37.64;30.68;54.50;;
76767;Laerm;65707;52.362;6.588;2023-05-14T00:47:15;37.18;30.72;44.49;;
76767;Laerm;65707;52.362;6.588;2023-05-14T00:49:42;37.08;30.53;45.66;;
76767;Laerm;65707;52.362;6.588;2023-05-14T00:52:11;36.86;30.57;44.68;;
76767;Laerm;65707;52.362;6.588;2023-05-14T00:54:38;37.27;30.79;45.86;;
76767;Laerm;65707;52.362;6.588;2023-05-14T00:57:05;36.93;30.55;44.69;;
76767;Laerm;65707;52.362;6.588;2023-05-14T00:59:32;36.98;30.64;44.38;;
76767;Laerm;65707;52.362;6.588;2023-05-14T01:02:00;37.61;30.48;49.33;;
76767;Laerm;65707;52.362;6.588;2023-05-14T01:04:27;38.48;30.21;54.33;;
76767;Laerm;65707;52.362;6.588;2023-05-14T01:07:10;38.77;31.31;54.61;;
76767;Laerm;65707;52.362;6.588;2023-05-14T01:09:51;41.23;31.25;57.20;;
76767;Laerm;65707;52.362;6.588;2023-05-14T01:12:26;36.34;31.31;43.00;;
76767;Laerm;65707;52.362;6.588;2023-05-14T01:15:01;37.86;31.65;47.38;;
76767;Laerm;65707;52.362;6.588;2023-05-14T01:17:39;42.22;31.50;61.99;;
76767;Laerm;65707;52.362;6.588;2023-05-14T01:20:10;39.24;32.07;46.44;;
76767;Laerm;65707;52.362;6.588;2023-05-14T01:22:39;37.70;31.91;45.00;;
76767;Laerm;65707;52.362;6.588;2023-05-14T01:25:07;42.09;31.52;57.77;;
76767;Laerm;65707;52.362;6.588;2023-05-14T01:27:41;42.23;31.68;60.65;;
76767;Laerm;65707;52.362;6.588;2023-05-14T01:30:20;37.89;32.26;44.57;;
76767;Laerm;65707;52.362;6.588;2023-05-14T01:32:53;41.24;31.17;54.61;;
76767;Laerm;65707;52.362;6.588;2023-05-14T01:35:24;38.15;31.57;51.09;;
76767;Laerm;65707;52.362;6.588;2023-05-14T01:37:55;37.58;31.16;48.59;;
76767;Laerm;65707;52.362;6.588;2023-05-14T01:40:24;37.37;31.64;44.33;;
76767;Laerm;65707;52.362;6.588;2023-05-14T01:42:52;37.40;31.55;44.30;;
76767;Laerm;65707;52.362;6.588;2023-05-14T01:45:19;36.91;31.05;44.02;;
76767;Laerm;65707;52.362;6.588;2023-05-14T01:47:46;37.02;31.06;44.81;;
76767;Laerm;65707;52.362;6.588;2023-05-14T01:50:13;36.86;31.34;44.05;;
76767;Laerm;65707;52.362;6.588;2023-05-14T01:52:40;37.14;30.81;44.95;;
76767;Laerm;65707;52.362;6.588;2023-05-14T01:55:09;36.88;30.74;45.84;;
76767;Laerm;65707;52.362;6.588;2023-05-14T01:57:35;36.93;31.38;44.00;;
76767;Laerm;65707;52.362;6.588;2023-05-14T02:00:03;37.51;30.92;62.55;;
76767;Laerm;65707;52.362;6.588;2023-05-14T02:02:30;37.60;31.83;45.69;;
76767;Laerm;65707;52.362;6.588;2023-05-14T02:04:57;37.69;31.89;44.48;;
76767;Laerm;65707;52.362;6.588;2023-05-14T02:07:23;36.94;31.00;45.54;;
76767;Laerm;65707;52.362;6.588;2023-05-14T02:09:50;38.17;31.78;50.94;;
76767;Laerm;65707;52.362;6.588;2023-05-14T02:12:18;37.74;31.73;45.93;;
76767;Laerm;65707;52.362;6.588;2023-05-14T02:14:45;37.50;31.65;44.36;;
76767;Laerm;65707;52.362;6.588;2023-05-14T02:17:13;42.95;31.32;59.49;;
76767;Laerm;65707;52.362;6.588;2023-05-14T02:19:40;39.34;31.46;54.54;;
76767;Laerm;65707;52.362;6.588;2023-05-14T02:22:07;39.21;31.28;51.84;;
76767;Laerm;65707;52.362;6.588;2023-05-14T02:24:34;37.17;31.38;45.08;;
76767;Laerm;65707;52.362;6.588;2023-05-14T02:27:01;37.03;31.09;48.26;;
76767;Laerm;65707;52.362;6.588;2023-05-14T02:29:29;40.03;30.40;55.48;;
76767;Laerm;65707;52.362;6.588;2023-05-14T02:31:55;40.84;30.95;56.01;;
76767;Laerm;65707;52.362;6.588;2023-05-14T02:34:23;41.26;31.50;57.98;;
76767;Laerm;65707;52.362;6.588;2023-05-14T02:36:50;41.91;31.19;59.28;;
76767;Laerm;65707;52.362;6.588;2023-05-14T02:39:17;41.10;31.51;58.34;;
76767;Laerm;65707;52.362;6.588;2023-05-14T02:41:43;38.62;32.12;47.25;;
76767;Laerm;65707;52.362;6.588;2023-05-14T02:44:10;38.94;32.77;48.89;;
76767;Laerm;65707;52.362;6.588;2023-05-14T02:46:38;38.48;31.84;47.80;;
76767;Laerm;65707;52.362;6.588;2023-05-14T02:49:05;40.02;32.41;54.85;;
76767;Laerm;65707;52.362;6.588;2023-05-14T02:51:31;41.08;32.39;55.08;;
76767;Laerm;65707;52.362;6.588;2023-05-14T02:53:58;43.29;32.46;58.59;;
76767;Laerm;65707;52.362;6.588;2023-05-14T02:56:25;42.56;31.38;55.03;;
76767;Laerm;65707;52.362;6.588;2023-05-14T02:58:52;41.85;32.16;65.78;;
76767;Laerm;65707;52.362;6.588;2023-05-14T03:01:18;41.76;31.45;54.97;;
76767;Laerm;65707;52.362;6.588;2023-05-14T03:03:46;41.64;31.65;59.48;;
76767;Laerm;65707;52.362;6.588;2023-05-14T03:06:13;38.68;32.05;48.35;;
76767;Laerm;65707;52.362;6.588;2023-05-14T03:08:40;41.31;31.53;55.31;;
76767;Laerm;65707;52.362;6.588;2023-05-14T03:11:07;37.56;31.78;51.59;;
76767;Laerm;65707;52.362;6.588;2023-05-14T03:13:33;37.98;31.80;48.27;;
76767;Laerm;65707;52.362;6.588;2023-05-14T03:16:00;37.37;31.89;48.54;;
76767;Laerm;65707;52.362;6.588;2023-05-14T03:18:27;40.89;31.28;56.49;;
76767;Laerm;65707;52.362;6.588;2023-05-14T03:20:56;42.20;31.83;62.73;;
76767;Laerm;65707;52.362;6.588;2023-05-14T03:23:23;39.95;31.58;59.26;;
76767;Laerm;65707;52.362;6.588;2023-05-14T03:25:49;40.51;31.33;56.33;;
76767;Laerm;65707;52.362;6.588;2023-05-14T03:28:16;40.20;31.34;56.19;;
76767;Laerm;65707;52.362;6.588;2023-05-14T03:30:43;39.41;31.29;59.92;;
76767;Laerm;65707;52.362;6.588;2023-05-14T03:33:10;38.74;30.91;57.16;;
76767;Laerm;65707;52.362;6.588;2023-05-14T03:35:37;39.46;32.69;61.52;;
76767;Laerm;65707;52.362;6.588;2023-05-14T03:38:05;39.59;32.08;53.29;;
76767;Laerm;65707;52.362;6.588;2023-05-14T03:40:31;40.16;32.61;52.64;;
76767;Laerm;65707;52.362;6.588;2023-05-14T03:42:58;44.73;36.21;66.26;;
76767;Laerm;65707;52.362;6.588;2023-05-14T03:45:25;38.55;33.24;50.14;;
76767;Laerm;65707;52.362;6.588;2023-05-14T03:47:53;40.95;33.67;54.71;;
76767;Laerm;65707;52.362;6.588;2023-05-14T03:50:19;39.72;33.53;55.56;;
76767;Laerm;65707;52.362;6.588;2023-05-14T03:52:49;39.04;32.89;56.12;;
76767;Laerm;65707;52.362;6.588;2023-05-14T03:55:18;38.94;33.23;54.08;;
76767;Laerm;65707;52.362;6.588;2023-05-14T03:57:45;37.98;31.81;53.55;;
76767;Laerm;65707;52.362;6.588;2023-05-14T04:00:13;37.59;31.18;51.32;;
76767;Laerm;65707;52.362;6.588;2023-05-14T04:02:39;37.40;30.81;52.35;;
76767;Laerm;65707;52.362;6.588;2023-05-14T04:05:07;36.90;31.41;53.05;;
76767;Laerm;65707;52.362;6.588;2023-05-14T04:07:34;37.21;31.22;43.80;;
76767;Laerm;65707;52.362;6.588;2023-05-14T04:10:01;39.40;31.82;58.23;;
76767;Laerm;65707;52.362;6.588;2023-05-14T04:12:29;37.85;32.02;49.79;;
76767;Laerm;65707;52.362;6.588;2023-05-14T04:14:57;38.75;32.37;54.21;;
76767;Laerm;65707;52.362;6.588;2023-05-14T04:17:24;37.79;32.33;44.01;;
76767;Laerm;65707;52.362;6.588;2023-05-14T04:19:51;37.60;31.81;47.36;;
76767;Laerm;65707;52.362;6.588;2023-05-14T04:22:17;38.53;31.50;51.42;;
76767;Laerm;65707;52.362;6.588;2023-05-14T04:24:44;38.84;30.92;53.34;;
76767;Laerm;65707;52.362;6.588;2023-05-14T04:27:13;38.69;32.04;48.13;;
76767;Laerm;65707;52.362;6.588;2023-05-14T04:29:46;40.74;31.61;55.04;;
76767;Laerm;65707;52.362;6.588;2023-05-14T04:32:13;43.53;32.35;68.31;;
76767;Laerm;65707;52.362;6.588;2023-05-14T04:34:40;38.15;31.61;55.18;;
76767;Laerm;65707;52.362;6.588;2023-05-14T04:37:07;37.89;32.07;58.44;;
76767;Laerm;65707;52.362;6.588;2023-05-14T04:39:34;40.80;32.16;53.92;;
76767;Laerm;65707;52.362;6.588;2023-05-14T04:42:01;55.13;33.27;68.61;;
76767;Laerm;65707;52.362;6.588;2023-05-14T04:44:28;42.14;32.90;57.45;;
76767;Laerm;65707;52.362;6.588;2023-05-14T04:46:56;38.64;32.29;50.43;;
76767;Laerm;65707;52.362;6.588;2023-05-14T04:49:22;39.06;33.06;49.33;;
76767;Laerm;65707;52.362;6.588;2023-05-14T04:51:49;38.27;32.92;44.95;;
76767;Laerm;65707;52.362;6.588;2023-05-14T04:54:16;41.29;31.39;64.98;;
76767;Laerm;65707;52.362;6.588;2023-05-14T04:56:44;39.99;31.84;52.01;;
76767;Laerm;65707;52.362;6.588;2023-05-14T04:59:12;39.61;32.05;62.94;;
76767;Laerm;65707;52.362;6.588;2023-05-14T05:01:38;37.96;31.58;49.16;;
76767;Laerm;65707;52.362;6.588;2023-05-14T05:04:06;37.49;31.27;48.68;;
76767;Laerm;65707;52.362;6.588;2023-05-14T05:06:33;41.94;31.02;61.57;;
76767;Laerm;65707;52.362;6.588;2023-05-14T05:09:00;39.78;31.96;53.13;;
76767;Laerm;65707;52.362;6.588;2023-05-14T05:11:27;40.43;31.89;53.32;;
76767;Laerm;65707;52.362;6.588;2023-05-14T05:13:54;43.21;31.44;62.89;;
76767;Laerm;65707;52.362;6.588;2023-05-14T05:16:20;37.90;31.98;49.65;;
76767;Laerm;65707;52.362;6.588;2023-05-14T05:18:47;37.22;31.48;43.67;;
76767;Laerm;65707;52.362;6.588;2023-05-14T05:21:15;44.60;31.67;66.02;;
76767;Laerm;65707;52.362;6.588;2023-05-14T05:23:42;42.55;31.84;59.30;;
76767;Laerm;65707;52.362;6.588;2023-05-14T05:26:09;40.96;32.05;53.93;;
76767;Laerm;65707;52.362;6.588;2023-05-14T05:28:35;37.19;31.20;45.35;;
76767;Laerm;65707;52.362;6.588;2023-05-14T05:31:02;39.21;31.40;47.43;;
76767;Laerm;65707;52.362;6.588;2023-05-14T05:33:29;38.67;32.08;56.17;;
76767;Laerm;65707;52.362;6.588;2023-05-14T05:35:56;39.98;32.18;58.33;;
76767;Laerm;65707;52.362;6.588;2023-05-14T05:38:24;39.56;31.21;51.28;;
76767;Laerm;65707;52.362;6.588;2023-05-14T05:40:51;44.02;32.66;61.87;;
76767;Laerm;65707;52.362;6.588;2023-05-14T05:43:17;38.37;31.88;53.92;;
76767;Laerm;65707;52.362;6.588;2023-05-14T05:45:44;37.86;31.82;54.60;;
76767;Laerm;65707;52.362;6.588;2023-05-14T05:48:11;42.08;32.00;65.86;;
76767;Laerm;65707;52.362;6.588;2023-05-14T05:50:38;40.12;31.82;53.24;;
76767;Laerm;65707;52.362;6.588;2023-05-14T05:53:05;41.43;31.60;56.12;;
76767;Laerm;65707;52.362;6.588;2023-05-14T05:55:33;42.06;30.63;58.65;;
76767;Laerm;65707;52.362;6.588;2023-05-14T05:57:59;40.36;31.22;58.27;;
76767;Laerm;65707;52.362;6.588;2023-05-14T06:00:26;42.73;31.99;60.45;;
76767;Laerm;65707;52.362;6.588;2023-05-14T06:02:52;37.70;31.27;55.29;;
76767;Laerm;65707;52.362;6.588;2023-05-14T06:05:20;41.18;31.54;71.71;;
76767;Laerm;65707;52.362;6.588;2023-05-14T06:07:48;47.36;31.20;64.98;;
76767;Laerm;65707;52.362;6.588;2023-05-14T06:10:15;41.03;31.56;59.21;;
76767;Laerm;65707;52.362;6.588;2023-05-14T06:12:43;48.45;32.02;67.22;;
76767;Laerm;65707;52.362;6.588;2023-05-14T06:15:10;52.80;32.21;63.77;;
76767;Laerm;65707;52.362;6.588;2023-05-14T06:17:37;40.77;31.44;58.61;;
76767;Laerm;65707;52.362;6.588;2023-05-14T06:20:06;37.77;31.05;44.72;;
76767;Laerm;65707;52.362;6.588;2023-05-14T06:22:33;41.93;31.53;56.27;;
76767;Laerm;65707;52.362;6.588;2023-05-14T06:25:00;46.37;32.31;65.97;;
76767;Laerm;65707;52.362;6.588;2023-05-14T06:27:26;43.20;31.21;68.23;;
76767;Laerm;65707;52.362;6.588;2023-05-14T06:29:55;42.57;30.40;65.23;;
76767;Laerm;65707;52.362;6.588;2023-05-14T06:32:21;46.31;30.98;72.29;;
76767;Laerm;65707;52.362;6.588;2023-05-14T06:34:48;38.77;31.64;53.50;;
76767;Laerm;65707;52.362;6.588;2023-05-14T06:37:15;46.38;31.26;62.66;;
76767;Laerm;65707;52.362;6.588;2023-05-14T06:39:41;43.72;30.73;59.02;;
76767;Laerm;65707;52.362;6.588;2023-05-14T06:42:14;47.40;30.70;67.14;;
76767;Laerm;65707;52.362;6.588;2023-05-14T06:44:41;39.06;31.30;51.41;;
76767;Laerm;65707;52.362;6.588;2023-05-14T06:47:09;48.83;32.18;69.13;;
76767;Laerm;65707;52.362;6.588;2023-05-14T06:49:36;46.35;33.18;64.37;;
76767;Laerm;65707;52.362;6.588;2023-05-14T06:52:04;41.99;31.35;57.52;;
76767;Laerm;65707;52.362;6.588;2023-05-14T06:54:30;49.13;33.85;68.07;;
76767;Laerm;65707;52.362;6.588;2023-05-14T06:56:57;41.31;30.91;65.45;;
76767;Laerm;65707;52.362;6.588;2023-05-14T06:59:24;42.70;31.28;68.34;;
76767;Laerm;65707;52.362;6.588;2023-05-14T07:01:51;47.10;31.44;73.20;;
76767;Laerm;65707;52.362;6.588;2023-05-14T07:04:21;43.43;32.04;56.10;;
76767;Laerm;65707;52.362;6.588;2023-05-14T07:06:48;45.41;32.69;70.06;;
76767;Laerm;65707;52.362;6.588;2023-05-14T07:09:15;49.14;32.38;78.43;;
76767;Laerm;65707;52.362;6.588;2023-05-14T07:11:42;49.49;33.01;66.61;;
76767;Laerm;65707;52.362;6.588;2023-05-14T07:14:08;44.05;33.90;55.86;;
76767;Laerm;65707;52.362;6.588;2023-05-14T07:16:35;43.61;31.96;57.09;;
76767;Laerm;65707;52.362;6.588;2023-05-14T07:19:02;49.11;33.53;69.49;;
76767;Laerm;65707;52.362;6.588;2023-05-14T07:21:30;48.75;31.19;69.41;;
76767;Laerm;65707;52.362;6.588;2023-05-14T07:23:57;47.87;31.68;66.66;;
76767;Laerm;65707;52.362;6.588;2023-05-14T07:26:24;42.98;31.37;54.10;;
76767;Laerm;65707;52.362;6.588;2023-05-14T07:28:50;45.87;34.25;59.95;;
76767;Laerm;65707;52.362;6.588;2023-05-14T07:31:17;44.43;34.34;56.31;;
76767;Laerm;65707;52.362;6.588;2023-05-14T07:33:44;43.52;32.53;65.34;;
76767;Laerm;65707;52.362;6.588;2023-05-14T07:36:11;40.79;32.08;51.88;;
76767;Laerm;65707;52.362;6.588;2023-05-14T07:38:39;46.23;30.93;62.32;;
76767;Laerm;65707;52.362;6.588;2023-05-14T07:41:05;47.49;30.98;62.27;;
76767;Laerm;65707;52.362;6.588;2023-05-14T07:43:32;45.99;31.91;61.08;;
76767;Laerm;65707;52.362;6.588;2023-05-14T07:45:59;44.96;31.64;58.82;;
76767;Laerm;65707;52.362;6.588;2023-05-14T07:48:26;39.99;31.94;49.95;;
76767;Laerm;65707;52.362;6.588;2023-05-14T07:50:52;46.61;32.77;64.22;;
76767;Laerm;65707;52.362;6.588;2023-05-14T07:53:19;44.35;32.53;56.70;;
76767;Laerm;65707;52.362;6.588;2023-05-14T07:55:48;49.81;31.99;74.00;;
76767;Laerm;65707;52.362;6.588;2023-05-14T07:58:16;48.32;33.68;67.48;;
76767;Laerm;65707;52.362;6.588;2023-05-14T08:00:43;48.63;32.53;72.74;;
76767;Laerm;65707;52.362;6.588;2023-05-14T08:03:09;46.74;31.45;71.30;;
76767;Laerm;65707;52.362;6.588;2023-05-14T08:05:36;43.25;31.42;54.57;;
76767;Laerm;65707;52.362;6.588;2023-05-14T08:08:03;48.47;31.60;74.81;;
76767;Laerm;65707;52.362;6.588;2023-05-14T08:10:30;47.05;31.28;65.53;;
76767;Laerm;65707;52.362;6.588;2023-05-14T08:12:58;49.15;31.20;79.48;;
76767;Laerm;65707;52.362;6.588;2023-05-14T08:15:24;43.89;31.66;67.16;;
76767;Laerm;65707;52.362;6.588;2023-05-14T08:17:51;42.57;30.93;59.97;;
76767;Laerm;65707;52.362;6.588;2023-05-14T08:20:18;56.58;32.07;76.91;;
76767;Laerm;65707;52.362;6.588;2023-05-14T08:22:45;42.98;31.35;57.34;;
76767;Laerm;65707;52.362;6.588;2023-05-14T08:25:12;58.28;32.34;78.31;;
76767;Laerm;65707;52.362;6.588;2023-05-14T08:27:39;58.94;31.51;78.23;;
76767;Laerm;65707;52.362;6.588;2023-05-14T08:30:08;58.76;33.05;79.35;;
76767;Laerm;65707;52.362;6.588;2023-05-14T08:32:34;56.45;34.16;82.04;;
76767;Laerm;65707;52.362;6.588;2023-05-14T08:35:03;53.19;32.09;74.28;;
76767;Laerm;65707;52.362;6.588;2023-05-14T08:37:30;56.57;33.36;81.22;;
76767;Laerm;65707;52.362;6.588;2023-05-14T08:39:56;62.96;32.78;82.11;;
76767;Laerm;65707;52.362;6.588;2023-05-14T08:42:23;70.38;67.26;85.42;;
76767;Laerm;65707;52.362;6.588;2023-05-14T08:44:56;70.82;67.46;87.13;;
76767;Laerm;65707;52.362;6.588;2023-05-14T08:47:28;69.33;66.95;77.16;;
76767;Laerm;65707;52.362;6.588;2023-05-14T08:50:01;69.61;66.99;76.32;;
76767;Laerm;65707;52.362;6.588;2023-05-14T08:52:29;68.43;62.85;77.21;;
76767;Laerm;65707;52.362;6.588;2023-05-14T08:54:59;68.53;43.51;82.37;;
76767;Laerm;65707;52.362;6.588;2023-05-14T08:57:29;55.84;37.83;69.23;;
76767;Laerm;65707;52.362;6.588;2023-05-14T08:59:56;60.53;40.75;86.04;;
76767;Laerm;65707;52.362;6.588;2023-05-14T09:02:27;50.93;36.79;76.68;;
76767;Laerm;65707;52.362;6.588;2023-05-14T09:04:56;56.43;41.78;76.92;;
76767;Laerm;65707;52.362;6.588;2023-05-14T09:07:23;55.53;38.07;78.12;;
76767;Laerm;65707;52.362;6.588;2023-05-14T09:09:51;54.56;37.93;78.28;;
76767;Laerm;65707;52.362;6.588;2023-05-14T09:12:19;52.77;39.73;70.48;;
76767;Laerm;65707;52.362;6.588;2023-05-14T09:14:48;56.86;38.55;77.90;;
76767;Laerm;65707;52.362;6.588;2023-05-14T09:17:17;64.12;37.26;89.86;;
76767;Laerm;65707;52.362;6.588;2023-05-14T09:19:46;57.42;39.31;75.71;;
76767;Laerm;65707;52.362;6.588;2023-05-14T09:22:14;54.39;36.10;80.90;;
76767;Laerm;65707;52.362;6.588;2023-05-14T09:24:42;63.42;37.35;92.39;;
76767;Laerm;65707;52.362;6.588;2023-05-14T09:27:17;59.41;33.38;86.12;;
76767;Laerm;65707;52.362;6.588;2023-05-14T09:29:47;64.32;38.86;95.49;;
76767;Laerm;65707;52.362;6.588;2023-05-14T09:32:13;55.76;37.41;81.89;;
76767;Laerm;65707;52.362;6.588;2023-05-14T09:34:40;57.84;42.25;82.63;;
76767;Laerm;65707;52.362;6.588;2023-05-14T09:37:09;59.52;39.85;81.07;;
76767;Laerm;65707;52.362;6.588;2023-05-14T09:39:37;63.42;45.31;83.60;;
76767;Laerm;65707;52.362;6.588;2023-05-14T09:42:04;61.89;42.81;78.27;;
76767;Laerm;65707;52.362;6.588;2023-05-14T09:44:31;64.86;39.07;81.23;;
76767;Laerm;65707;52.362;6.588;2023-05-14T09:47:00;60.54;34.50;78.41;;
76767;Laerm;65707;52.362;6.588;2023-05-14T09:49:27;60.99;41.25;82.60;;
76767;Laerm;65707;52.362;6.588;2023-05-14T09:51:53;60.68;45.54;81.29;;
76767;Laerm;65707;52.362;6.588;2023-05-14T09:54:25;57.67;45.90;75.60;;
76767;Laerm;65707;52.362;6.588;2023-05-14T09:56:52;60.95;36.05;81.75;;
76767;Laerm;65707;52.362;6.588;2023-05-14T09:59:19;63.07;39.89;84.32;;
76767;Laerm;65707;52.362;6.588;2023-05-14T10:01:46;60.21;36.22;81.62;;
76767;Laerm;65707;52.362;6.588;2023-05-14T10:04:13;69.71;41.31;91.50;;
76767;Laerm;65707;52.362;6.588;2023-05-14T10:06:42;62.79;39.42;81.69;;
76767;Laerm;65707;52.362;6.588;2023-05-14T10:09:15;62.98;38.94;86.34;;
76767;Laerm;65707;52.362;6.588;2023-05-14T10:11:52;61.97;38.88;86.58;;
76767;Laerm;65707;52.362;6.588;2023-05-14T10:14:25;61.36;39.85;82.53;;
76767;Laerm;65707;52.362;6.588;2023-05-14T10:16:58;61.53;40.02;82.36;;
76767;Laerm;65707;52.362;6.588;2023-05-14T10:19:27;59.60;37.15;82.70;;
76767;Laerm;65707;52.362;6.588;2023-05-14T10:22:03;64.56;36.22;86.31;;
76767;Laerm;65707;52.362;6.588;2023-05-14T10:24:31;66.18;38.71;86.34;;
76767;Laerm;65707;52.362;6.588;2023-05-14T10:27:00;64.00;39.28;84.97;;
76767;Laerm;65707;52.362;6.588;2023-05-14T10:29:32;60.57;37.51;80.81;;
76767;Laerm;65707;52.362;6.588;2023-05-14T10:32:04;61.82;38.89;83.98;;
76767;Laerm;65707;52.362;6.588;2023-05-14T10:34:36;62.73;36.69;83.92;;
76767;Laerm;65707;52.362;6.588;2023-05-14T10:37:07;62.93;37.53;83.07;;
76767;Laerm;65707;52.362;6.588;2023-05-14T10:39:43;65.87;39.00;86.07;;
76767;Laerm;65707;52.362;6.588;2023-05-14T10:42:13;63.29;38.22;79.60;;
76767;Laerm;65707;52.362;6.588;2023-05-14T10:44:48;65.28;38.49;87.70;;
76767;Laerm;65707;52.362;6.588;2023-05-14T10:47:16;59.53;37.79;77.84;;
76767;Laerm;65707;52.362;6.588;2023-05-14T10:49:45;55.74;38.87;73.47;;
76767;Laerm;65707;52.362;6.588;2023-05-14T10:52:16;57.15;38.52;77.78;;
76767;Laerm;65707;52.362;6.588;2023-05-14T10:54:52;64.38;38.97;83.68;;
76767;Laerm;65707;52.362;6.588;2023-05-14T10:57:22;56.69;38.35;77.07;;
76767;Laerm;65707;52.362;6.588;2023-05-14T10:59:52;58.30;38.89;76.18;;
76767;Laerm;65707;52.362;6.588;2023-05-14T11:02:23;61.00;38.39;86.89;;
76767;Laerm;65707;52.362;6.588;2023-05-14T11:04:56;62.13;39.92;85.67;;
76767;Laerm;65707;52.362;6.588;2023-05-14T11:07:27;60.21;38.34;81.26;;
76767;Laerm;65707;52.362;6.588;2023-05-14T11:10:00;57.76;36.14;78.19;;
76767;Laerm;65707;52.362;6.588;2023-05-14T11:12:29;59.60;36.43;77.45;;
76767;Laerm;65707;52.362;6.588;2023-05-14T11:14:58;59.80;37.55;82.54;;
76767;Laerm;65707;52.362;6.588;2023-05-14T11:17:29;60.94;38.98;76.29;;
76767;Laerm;65707;52.362;6.588;2023-05-14T11:19:57;60.16;36.94;79.44;;
76767;Laerm;65707;52.362;6.588;2023-05-14T11:22:24;65.50;39.11;88.22;;
76767;Laerm;65707;52.362;6.588;2023-05-14T11:24:51;67.70;38.30;94.10;;
76767;Laerm;65707;52.362;6.588;2023-05-14T11:27:21;62.33;41.11;89.71;;
76767;Laerm;65707;52.362;6.588;2023-05-14T11:29:50;63.12;39.18;81.83;;
76767;Laerm;65707;52.362;6.588;2023-05-14T11:32:18;65.99;37.27;86.26;;
76767;Laerm;65707;52.362;6.588;2023-05-14T11:34:45;67.78;39.84;89.55;;
76767;Laerm;65707;52.362;6.588;2023-05-14T11:37:14;65.75;37.85;90.70;;
76767;Laerm;65707;52.362;6.588;2023-05-14T11:39:47;63.52;38.18;85.58;;
76767;Laerm;65707;52.362;6.588;2023-05-14T11:42:15;61.83;37.54;78.42;;
76767;Laerm;65707;52.362;6.588;2023-05-14T11:44:45;59.40;34.50;84.14;;
76767;Laerm;65707;52.362;6.588;2023-05-14T11:47:14;67.36;38.37;95.05;;
76767;Laerm;65707;52.362;6.588;2023-05-14T11:49:40;63.78;38.36;89.61;;
76767;Laerm;65707;52.362;6.588;2023-05-14T11:52:09;61.09;35.04;84.45;;
76767;Laerm;65707;52.362;6.588;2023-05-14T11:54:39;59.47;38.71;78.72;;
76767;Laerm;65707;52.362;6.588;2023-05-14T11:57:09;60.11;37.64;83.40;;
76767;Laerm;65707;52.362;6.588;2023-05-14T11:59:36;61.64;38.54;79.02;;
76767;Laerm;65707;52.362;6.588;2023-05-14T12:02:07;59.72;38.50;76.57;;
76767;Laerm;65707;52.362;6.588;2023-05-14T12:04:37;59.73;35.76;78.44;;
76767;Laerm;65707;52.362;6.588;2023-05-14T12:07:08;59.73;39.11;76.23;;
76767;Laerm;65707;52.362;6.588;2023-05-14T12:09:36;61.73;37.50;81.42;;
76767;Laerm;65707;52.362;6.588;2023-05-14T12:12:07;58.01;35.29;84.76;;
76767;Laerm;65707;52.362;6.588;2023-05-14T12:14:37;59.28;35.94;76.60;;
76767;Laerm;65707;52.362;6.588;2023-05-14T12:17:11;53.14;36.53;67.22;;
76767;Laerm;65707;52.362;6.588;2023-05-14T12:19:43;57.49;35.15;77.73;;
76767;Laerm;65707;52.362;6.588;2023-05-14T12:22:12;56.10;33.75;84.47;;
76767;Laerm;65707;52.362;6.588;2023-05-14T12:24:39;62.91;39.74;82.70;;
76767;Laerm;65707;52.362;6.588;2023-05-14T12:27:09;61.10;38.95;79.87;;
76767;Laerm;65707;52.362;6.588;2023-05-14T12:29:37;58.77;38.62;80.32;;
76767;Laerm;65707;52.362;6.588;2023-05-14T12:32:07;58.99;36.47;81.34;;
76767;Laerm;65707;52.362;6.588;2023-05-14T12:34:35;59.90;38.14;83.68;;
76767;Laerm;65707;52.362;6.588;2023-05-14T12:37:04;57.09;41.12;77.86;;
76767;Laerm;65707;52.362;6.588;2023-05-14T12:39:33;58.46;38.79;77.10;;
76767;Laerm;65707;52.362;6.588;2023-05-14T12:42:00;58.08;38.42;85.79;;
76767;Laerm;65707;52.362;6.588;2023-05-14T12:44:27;53.32;39.53;76.55;;
76767;Laerm;65707;52.362;6.588;2023-05-14T12:46:54;54.97;41.14;74.64;;
76767;Laerm;65707;52.362;6.588;2023-05-14T12:49:20;58.91;37.72;75.56;;
76767;Laerm;65707;52.362;6.588;2023-05-14T12:51:47;60.18;38.03;84.00;;
76767;Laerm;65707;52.362;6.588;2023-05-14T12:54:15;60.11;41.53;77.35;;
76767;Laerm;65707;52.362;6.588;2023-05-14T12:56:42;61.30;42.90;87.31;;
76767;Laerm;65707;52.362;6.588;2023-05-14T12:59:09;60.06;39.70;75.35;;
76767;Laerm;65707;52.362;6.588;2023-05-14T13:01:35;63.89;42.69;87.31;;
76767;Laerm;65707;52.362;6.588;2023-05-14T13:04:03;60.45;38.45;79.18;;
76767;Laerm;65707;52.362;6.588;2023-05-14T13:06:30;51.56;39.69;73.37;;
76767;Laerm;65707;52.362;6.588;2023-05-14T13:08:57;55.34;38.66;82.73;;
76767;Laerm;65707;52.362;6.588;2023-05-14T13:11:27;51.44;35.48;70.48;;
76767;Laerm;65707;52.362;6.588;2023-05-14T13:13:56;53.03;34.18;78.15;;
76767;Laerm;65707;52.362;6.588;2023-05-14T13:16:24;50.03;39.34;65.30;;
76767;Laerm;65707;52.362;6.588;2023-05-14T13:18:51;52.89;37.64;78.46;;
76767;Laerm;65707;52.362;6.588;2023-05-14T13:21:17;53.82;38.58;70.97;;
76767;Laerm;65707;52.362;6.588;2023-05-14T13:23:44;52.16;38.99;65.89;;
76767;Laerm;65707;52.362;6.588;2023-05-14T13:26:11;52.51;38.30;75.37;;
76767;Laerm;65707;52.362;6.588;2023-05-14T13:28:39;49.20;38.01;62.65;;
76767;Laerm;65707;52.362;6.588;2023-05-14T13:31:09;49.25;39.59;58.27;;
76767;Laerm;65707;52.362;6.588;2023-05-14T13:33:41;50.69;37.57;61.59;;
76767;Laerm;65707;52.362;6.588;2023-05-14T13:36:11;47.55;38.49;54.91;;
76767;Laerm;65707;52.362;6.588;2023-05-14T13:38:38;50.18;38.63;61.76;;
76767;Laerm;65707;52.362;6.588;2023-05-14T13:41:05;50.40;32.75;65.74;;
76767;Laerm;65707;52.362;6.588;2023-05-14T13:43:33;50.72;35.12;77.53;;
76767;Laerm;65707;52.362;6.588;2023-05-14T13:46:03;51.43;36.78;64.81;;
76767;Laerm;65707;52.362;6.588;2023-05-14T13:48:30;48.10;37.17;62.64;;